Time;durP1;ratioP1;P1;durP2;ratioP2;P2;SDS_P1;SDS_P2;PMS_P1;PMS_P2;Temp;Humidity;BMP_temperature;BMP_pressure;BME280_temperature;BME280_humidity;BME280_pressure;Samples;Min_cycle;Max_cycle;Signal;HPM_P1;HPM_P2
2021/08/15 00:01:48;;;;;;;18.70;6.78;;;;;;;;;;5110304;28;20028;-85
2021/08/15 00:04:15;;;;;;;15.52;6.43;;;;;;;;;;5112015;28;20178;-84
2021/08/15 00:06:41;;;;;;;17.83;7.30;;;;;;;;;;5108683;28;20052;-85
2021/08/15 00:09:08;;;;;;;20.73;6.82;;;;;;;;;;5099640;28;20058;-83
2021/08/15 00:11:35;;;;;;;20.20;7.00;;;;;;;;;;5098339;28;20048;-85
2021/08/15 00:14:01;;;;;;;16.60;6.60;;;;;;;;;;5099530;28;20048;-84
2021/08/15 00:16:29;;;;;;;19.95;6.10;;;;;;;;;;5098612;28;20101;-85
2021/08/15 00:18:55;;;;;;;16.48;6.15;;;;;;;;;;5098593;28;20058;-86
2021/08/15 00:21:22;;;;;;;17.05;6.25;;;;;;;;;;5099373;28;20048;-85
2021/08/15 00:23:53;;;;;;;14.75;5.97;;;;;;;;;;5097358;28;20043;-84
2021/08/15 00:26:20;;;;;;;14.95;7.38;;;;;;;;;;5100134;28;20094;-84
2021/08/15 00:28:50;;;;;;;19.05;6.60;;;;;;;;;;5099119;28;20044;-85
2021/08/15 00:31:17;;;;;;;15.45;6.38;;;;;;;;;;5095915;28;20058;-83
2021/08/15 00:33:44;;;;;;;14.00;6.38;;;;;;;;;;5095843;28;20044;-85
2021/08/15 00:36:10;;;;;;;20.23;7.03;;;;;;;;;;5097096;28;20040;-85
2021/08/15 00:38:37;;;;;;;14.85;6.50;;;;;;;;;;5096543;28;20455;-84
2021/08/15 00:41:05;;;;;;;13.73;6.68;;;;;;;;;;5095835;28;20258;-84
2021/08/15 00:43:32;;;;;;;14.60;6.53;;;;;;;;;;5094883;28;20232;-84
2021/08/15 00:46:05;;;;;;;15.90;6.22;;;;;;;;;;5093954;28;20147;-84
2021/08/15 00:48:32;;;;;;;13.02;6.10;;;;;;;;;;5096393;28;20087;-84
2021/08/15 00:50:59;;;;;;;15.32;6.22;;;;;;;;;;5094129;28;20082;-84
2021/08/15 00:53:26;;;;;;;15.27;6.15;;;;;;;;;;5095584;28;20048;-84
2021/08/15 00:55:54;;;;;;;12.38;6.68;;;;;;;;;;5097334;28;20201;-83
2021/08/15 00:58:21;;;;;;;17.35;6.57;;;;;;;;;;5097149;28;20399;-84
2021/08/15 01:00:47;;;;;;;15.70;5.85;;;;;;;;;;5093770;28;20105;-84
2021/08/15 01:03:14;;;;;;;15.38;6.10;;;;;;;;;;5095204;28;20461;-84
2021/08/15 01:05:41;;;;;;;18.10;5.95;;;;;;;;;;5097763;28;20070;-84
2021/08/15 01:08:07;;;;;;;13.32;5.85;;;;;;;;;;5096610;28;20051;-84
2021/08/15 01:10:34;;;;;;;18.42;7.53;;;;;;;;;;5096177;28;20366;-85
2021/08/15 01:13:04;;;;;;;12.68;5.82;;;;;;;;;;5097955;28;20489;-83
2021/08/15 01:15:31;;;;;;;17.75;6.38;;;;;;;;;;5098198;28;20052;-85
2021/08/15 01:17:57;;;;;;;17.08;5.97;;;;;;;;;;5096983;28;20113;-84
2021/08/15 01:20:24;;;;;;;18.38;5.55;;;;;;;;;;5097325;28;20052;-83
2021/08/15 01:22:50;;;;;;;15.98;5.63;;;;;;;;;;5109195;28;20179;-84
2021/08/15 01:25:17;;;;;;;15.95;5.82;;;;;;;;;;5109015;28;20043;-83
2021/08/15 01:27:44;;;;;;;14.27;6.18;;;;;;;;;;5097046;28;20058;-83
2021/08/15 01:30:12;;;;;;;11.48;4.80;;;;;;;;;;5099208;28;20048;-83
2021/08/15 01:32:39;;;;;;;16.60;5.68;;;;;;;;;;5111493;28;20048;-83
2021/08/15 01:35:06;;;;;;;11.70;5.65;;;;;;;;;;5107883;28;20097;-83
2021/08/15 01:37:33;;;;;;;10.40;5.22;;;;;;;;;;5095995;28;20078;-83
2021/08/15 01:40:02;;;;;;;14.30;5.78;;;;;;;;;;5095180;28;20051;-84
2021/08/15 01:42:30;;;;;;;20.65;5.53;;;;;;;;;;5106695;28;20095;-83
2021/08/15 01:44:58;;;;;;;12.35;5.60;;;;;;;;;;5103219;28;20055;-83
2021/08/15 01:47:28;;;;;;;10.65;5.22;;;;;;;;;;5095480;28;20108;-83
2021/08/15 01:49:55;;;;;;;17.15;5.53;;;;;;;;;;5095868;28;20048;-83
2021/08/15 01:52:22;;;;;;;23.80;5.50;;;;;;;;;;5094459;28;20076;-83
2021/08/15 01:54:49;;;;;;;15.40;5.53;;;;;;;;;;5095453;28;20044;-83
2021/08/15 01:57:15;;;;;;;14.60;5.78;;;;;;;;;;5094410;28;20044;-83
2021/08/15 01:59:42;;;;;;;12.95;5.57;;;;;;;;;;5093496;28;20059;-83
2021/08/15 02:02:09;;;;;;;17.08;6.10;;;;;;;;;;5092302;28;20050;-83
2021/08/15 02:04:36;;;;;;;16.58;5.22;;;;;;;;;;5094121;28;20048;-83
2021/08/15 02:07:03;;;;;;;13.13;5.70;;;;;;;;;;5095090;28;20047;-82
2021/08/15 02:09:31;;;;;;;17.27;5.97;;;;;;;;;;5096611;28;20082;-82
2021/08/15 02:11:57;;;;;;;23.30;6.65;;;;;;;;;;5095093;28;20055;-82
2021/08/15 02:14:24;;;;;;;18.38;5.68;;;;;;;;;;5094529;28;20097;-83
2021/08/15 02:16:51;;;;;;;12.15;5.20;;;;;;;;;;5098248;28;20047;-82
2021/08/15 02:19:17;;;;;;;12.27;5.22;;;;;;;;;;5110421;28;20220;-83
2021/08/15 02:21:44;;;;;;;12.48;5.50;;;;;;;;;;5109740;28;20046;-83
2021/08/15 02:24:11;;;;;;;15.35;5.50;;;;;;;;;;5109208;28;20048;-83
2021/08/15 02:26:38;;;;;;;12.57;5.53;;;;;;;;;;5109230;28;20064;-84
2021/08/15 02:29:05;;;;;;;17.40;5.97;;;;;;;;;;5100966;28;20087;-84
2021/08/15 02:31:35;;;;;;;18.95;6.15;;;;;;;;;;5098656;28;20044;-84
2021/08/15 02:34:01;;;;;;;14.25;4.85;;;;;;;;;;5097543;28;20086;-83
2021/08/15 02:36:31;;;;;;;13.45;5.75;;;;;;;;;;5096914;28;20086;-83
2021/08/15 02:38:58;;;;;;;12.32;5.50;;;;;;;;;;5098209;28;20047;-83
2021/08/15 02:41:24;;;;;;;13.23;5.30;;;;;;;;;;5099852;28;20059;-83
2021/08/15 02:43:51;;;;;;;17.55;6.00;;;;;;;;;;5109669;28;20054;-83
2021/08/15 02:46:18;;;;;;;19.23;5.88;;;;;;;;;;5111331;28;20094;-83
2021/08/15 02:48:44;;;;;;;12.85;4.93;;;;;;;;;;5110080;28;20040;-83
2021/08/15 02:51:11;;;;;;;13.25;5.55;;;;;;;;;;5103772;28;20052;-84
2021/08/15 02:53:41;;;;;;;11.68;5.20;;;;;;;;;;5102248;28;20052;-83
2021/08/15 02:56:08;;;;;;;14.02;5.78;;;;;;;;;;5098752;28;20355;-84
2021/08/15 02:58:34;;;;;;;15.63;5.70;;;;;;;;;;5098467;28;20474;-83
2021/08/15 03:01:01;;;;;;;18.25;5.70;;;;;;;;;;5097223;28;20059;-84
2021/08/15 03:03:31;;;;;;;13.95;5.53;;;;;;;;;;5099514;28;20051;-83
2021/08/15 03:05:57;;;;;;;11.95;5.30;;;;;;;;;;5097526;28;20058;-84
2021/08/15 03:08:24;;;;;;;13.93;5.57;;;;;;;;;;5095000;28;20044;-83
2021/08/15 03:10:51;;;;;;;14.77;6.25;;;;;;;;;;5095964;28;20149;-84
2021/08/15 03:13:17;;;;;;;15.23;6.00;;;;;;;;;;5096376;28;20055;-83
2021/08/15 03:15:44;;;;;;;12.15;5.95;;;;;;;;;;5097184;28;20107;-84
2021/08/15 03:18:16;;;;;;;15.05;6.38;;;;;;;;;;5097106;28;20159;-83
2021/08/15 03:20:43;;;;;;;14.82;5.70;;;;;;;;;;5094628;28;20056;-84
2021/08/15 03:23:10;;;;;;;13.18;5.95;;;;;;;;;;5092595;28;20066;-83
2021/08/15 03:25:39;;;;;;;12.98;5.57;;;;;;;;;;5094159;28;20055;-83
2021/08/15 03:28:06;;;;;;;14.27;5.68;;;;;;;;;;5095877;28;20052;-83
2021/08/15 03:30:34;;;;;;;20.75;5.45;;;;;;;;;;5094319;28;20043;-84
2021/08/15 03:33:00;;;;;;;13.60;5.43;;;;;;;;;;5095095;28;20056;-83
2021/08/15 03:35:27;;;;;;;18.27;6.38;;;;;;;;;;5097587;28;20431;-84
2021/08/15 03:37:57;;;;;;;18.10;6.28;;;;;;;;;;5098353;28;20242;-84
2021/08/15 03:40:23;;;;;;;12.18;5.25;;;;;;;;;;5100013;28;20109;-84
2021/08/15 03:42:50;;;;;;;20.75;6.25;;;;;;;;;;5099458;28;20074;-83
2021/08/15 03:45:20;;;;;;;13.00;6.00;;;;;;;;;;5098023;28;20229;-83
2021/08/15 03:47:50;;;;;;;19.55;6.25;;;;;;;;;;5098236;28;20048;-84
2021/08/15 03:50:17;;;;;;;18.30;5.95;;;;;;;;;;5095879;28;20113;-83
2021/08/15 03:52:44;;;;;;;15.85;5.68;;;;;;;;;;5096786;28;20076;-83
2021/08/15 03:55:13;;;;;;;16.92;7.15;;;;;;;;;;5098583;28;20051;-83
2021/08/15 03:57:41;;;;;;;15.48;6.03;;;;;;;;;;5098963;28;20052;-83
2021/08/15 04:00:08;;;;;;;10.90;5.18;;;;;;;;;;5098409;28;20075;-83
2021/08/15 04:02:38;;;;;;;22.05;6.63;;;;;;;;;;5099265;28;20048;-83
2021/08/15 04:05:05;;;;;;;15.48;5.78;;;;;;;;;;5099575;28;20072;-83
2021/08/15 04:07:31;;;;;;;14.00;5.97;;;;;;;;;;5100366;28;20040;-83
2021/08/15 04:09:58;;;;;;;16.77;6.40;;;;;;;;;;5111360;28;20044;-83
2021/08/15 04:12:25;;;;;;;16.73;6.65;;;;;;;;;;5114288;28;20044;-85
2021/08/15 04:14:51;;;;;;;17.77;6.10;;;;;;;;;;5102837;28;20332;-85
2021/08/15 04:17:18;;;;;;;15.93;6.70;;;;;;;;;;5101078;28;20063;-85
2021/08/15 04:19:48;;;;;;;17.30;7.03;;;;;;;;;;5103723;28;20048;-85
2021/08/15 04:22:14;;;;;;;15.90;5.40;;;;;;;;;;5102866;28;20047;-85
2021/08/15 04:24:41;;;;;;;15.50;6.40;;;;;;;;;;5112704;28;20036;-83
2021/08/15 04:27:08;;;;;;;14.43;6.60;;;;;;;;;;5116789;28;20046;-85
2021/08/15 04:29:35;;;;;;;21.73;6.45;;;;;;;;;;5101561;28;20068;-85
2021/08/15 04:32:02;;;;;;;17.52;6.80;;;;;;;;;;5098590;28;20048;-86
2021/08/15 04:34:29;;;;;;;17.05;6.57;;;;;;;;;;5105572;28;20036;-84
2021/08/15 04:36:56;;;;;;;18.25;6.70;;;;;;;;;;5113972;28;20444;-85
2021/08/15 04:39:22;;;;;;;20.65;6.10;;;;;;;;;;5101169;28;20048;-85
2021/08/15 04:41:50;;;;;;;15.95;6.82;;;;;;;;;;5099423;28;20058;-85
2021/08/15 04:44:17;;;;;;;19.52;6.85;;;;;;;;;;5100282;28;20200;-85
2021/08/15 04:46:43;;;;;;;17.10;6.90;;;;;;;;;;5099223;28;20052;-86
2021/08/15 04:49:10;;;;;;;21.15;6.63;;;;;;;;;;5100766;28;20108;-87
2021/08/15 04:51:37;;;;;;;19.15;6.65;;;;;;;;;;5097818;28;20047;-86
2021/08/15 04:54:03;;;;;;;18.17;7.00;;;;;;;;;;5099537;28;20052;-86
2021/08/15 04:56:30;;;;;;;18.92;6.93;;;;;;;;;;5099575;28;20074;-86
2021/08/15 04:58:56;;;;;;;16.83;6.95;;;;;;;;;;5100242;28;20044;-86
2021/08/15 05:01:23;;;;;;;17.90;6.28;;;;;;;;;;5099962;28;20123;-85
2021/08/15 05:03:52;;;;;;;20.83;6.93;;;;;;;;;;5099154;28;20048;-86
2021/08/15 05:06:18;;;;;;;14.73;6.90;;;;;;;;;;5101125;28;20067;-86
2021/08/15 05:08:45;;;;;;;18.20;7.72;;;;;;;;;;5101004;28;20544;-86
2021/08/15 05:11:11;;;;;;;17.23;6.07;;;;;;;;;;5100466;28;20047;-86
2021/08/15 05:13:38;;;;;;;18.52;7.30;;;;;;;;;;5098589;28;20416;-86
2021/08/15 05:16:05;;;;;;;15.32;6.78;;;;;;;;;;5098802;28;20428;-86
2021/08/15 05:18:31;;;;;;;15.77;6.75;;;;;;;;;;5098413;28;20064;-86
2021/08/15 05:20:58;;;;;;;17.60;7.13;;;;;;;;;;5099974;28;20056;-86
2021/08/15 05:23:24;;;;;;;13.50;6.43;;;;;;;;;;5101137;28;20056;-85
2021/08/15 05:25:51;;;;;;;22.83;7.10;;;;;;;;;;5109418;28;20059;-87
2021/08/15 05:28:18;;;;;;;23.85;7.57;;;;;;;;;;5113517;28;20054;-86
2021/08/15 05:30:44;;;;;;;18.63;6.90;;;;;;;;;;5105355;28;20044;-86
2021/08/15 05:33:11;;;;;;;19.83;7.10;;;;;;;;;;5097429;28;20404;-85
2021/08/15 05:35:38;;;;;;;16.80;7.10;;;;;;;;;;5099152;28;20059;-86
2021/08/15 05:38:04;;;;;;;19.40;7.10;;;;;;;;;;5098584;28;20129;-85
2021/08/15 05:40:37;;;;;;;20.60;7.03;;;;;;;;;;5096387;28;20055;-87
2021/08/15 05:43:04;;;;;;;14.15;6.65;;;;;;;;;;5093492;28;20052;-86
2021/08/15 05:45:37;;;;;;;18.98;7.03;;;;;;;;;;5096061;28;20147;-86
2021/08/15 05:48:07;;;;;;;17.13;7.38;;;;;;;;;;5097284;28;20133;-86
2021/08/15 05:50:35;;;;;;;12.10;6.70;;;;;;;;;;5095987;28;20097;-86
2021/08/15 05:53:01;;;;;;;12.13;6.13;;;;;;;;;;5096926;28;20048;-86
2021/08/15 05:55:28;;;;;;;15.05;7.78;;;;;;;;;;5097335;28;20074;-87
2021/08/15 05:57:55;;;;;;;18.77;6.70;;;;;;;;;;5096785;28;20115;-86
2021/08/15 06:00:22;;;;;;;19.50;6.63;;;;;;;;;;5098428;28;20432;-87
2021/08/15 06:02:51;;;;;;;17.38;6.78;;;;;;;;;;5099176;28;20047;-85
2021/08/15 06:05:22;;;;;;;17.98;6.75;;;;;;;;;;5102064;28;20378;-86
2021/08/15 06:07:49;;;;;;;14.05;6.72;;;;;;;;;;5107378;28;20043;-86
2021/08/15 06:10:17;;;;;;;17.80;6.47;;;;;;;;;;5101081;28;20048;-86
2021/08/15 06:12:47;;;;;;;14.13;7.15;;;;;;;;;;5094607;28;20079;-86
2021/08/15 06:15:15;;;;;;;18.00;6.68;;;;;;;;;;5098064;28;20127;-86
2021/08/15 06:17:43;;;;;;;15.68;6.18;;;;;;;;;;5097565;28;20086;-85
2021/08/15 06:20:12;;;;;;;14.07;6.20;;;;;;;;;;5096899;28;20055;-85
2021/08/15 06:22:39;;;;;;;20.52;7.35;;;;;;;;;;5097612;28;20067;-85
2021/08/15 06:25:06;;;;;;;16.95;6.80;;;;;;;;;;5095774;28;20091;-85
2021/08/15 06:27:33;;;;;;;13.50;6.10;;;;;;;;;;5097132;28;20067;-86
2021/08/15 06:30:00;;;;;;;15.13;6.57;;;;;;;;;;5098070;28;20186;-86
2021/08/15 06:32:27;;;;;;;12.82;5.70;;;;;;;;;;5098195;28;20393;-86
2021/08/15 06:34:53;;;;;;;18.42;6.63;;;;;;;;;;5098013;28;20059;-86
2021/08/15 06:37:20;;;;;;;14.20;6.25;;;;;;;;;;5096567;28;20056;-85
2021/08/15 06:39:46;;;;;;;17.40;7.15;;;;;;;;;;5095370;28;20346;-85
2021/08/15 06:42:13;;;;;;;18.42;7.40;;;;;;;;;;5094747;28;20321;-86
2021/08/15 06:44:40;;;;;;;15.95;6.15;;;;;;;;;;5098447;28;20052;-86
2021/08/15 06:47:07;;;;;;;12.40;5.38;;;;;;;;;;5104607;28;20059;-86
2021/08/15 06:49:34;;;;;;;15.13;6.45;;;;;;;;;;5107684;28;20048;-86
2021/08/15 06:52:01;;;;;;;11.70;5.97;;;;;;;;;;5105500;28;20055;-86
2021/08/15 06:54:34;;;;;;;13.48;6.20;;;;;;;;;;5104174;28;20313;-86
2021/08/15 06:57:00;;;;;;;13.77;5.60;;;;;;;;;;5104964;28;20056;-87
2021/08/15 06:59:27;;;;;;;11.30;5.30;;;;;;;;;;5104025;28;20035;-86
2021/08/15 07:01:54;;;;;;;9.75;5.45;;;;;;;;;;5107325;28;20103;-85
2021/08/15 07:04:20;;;;;;;13.65;6.30;;;;;;;;;;5110458;28;20063;-87
2021/08/15 07:06:47;;;;;;;10.25;5.40;;;;;;;;;;5104332;28;20424;-86
2021/08/15 07:09:14;;;;;;;11.43;5.03;;;;;;;;;;5097588;28;20052;-86
2021/08/15 07:11:41;;;;;;;12.18;5.70;;;;;;;;;;5099605;28;20063;-85
2021/08/15 07:14:09;;;;;;;12.02;4.97;;;;;;;;;;5096437;28;20051;-86
2021/08/15 07:16:40;;;;;;;12.27;5.03;;;;;;;;;;5096975;28;20054;-87
2021/08/15 07:19:07;;;;;;;10.52;5.03;;;;;;;;;;5109202;28;20058;-87
2021/08/15 07:21:33;;;;;;;10.77;4.18;;;;;;;;;;5113476;28;20052;-87
2021/08/15 07:24:00;;;;;;;7.95;3.88;;;;;;;;;;5098823;28;20528;-87
2021/08/15 07:26:27;;;;;;;10.02;4.72;;;;;;;;;;5098309;28;20058;-86
2021/08/15 07:28:54;;;;;;;12.63;4.03;;;;;;;;;;5108738;28;20042;-86
2021/08/15 07:31:27;;;;;;;9.02;3.63;;;;;;;;;;5110259;28;20120;-85
2021/08/15 07:33:53;;;;;;;9.45;3.97;;;;;;;;;;5099866;28;20051;-84
2021/08/15 07:36:20;;;;;;;7.57;4.07;;;;;;;;;;5098180;28;20339;-84
2021/08/15 07:38:50;;;;;;;7.78;3.33;;;;;;;;;;5097013;28;20484;-85
2021/08/15 07:41:17;;;;;;;6.43;3.42;;;;;;;;;;5096572;28;20400;-85
2021/08/15 07:43:43;;;;;;;7.88;3.53;;;;;;;;;;5097515;28;20058;-84
2021/08/15 07:46:13;;;;;;;6.70;3.45;;;;;;;;;;5097576;28;20043;-85
2021/08/15 07:48:40;;;;;;;6.05;3.28;;;;;;;;;;5098037;28;20052;-85
2021/08/15 07:51:07;;;;;;;8.27;3.75;;;;;;;;;;5096690;28;20052;-85
2021/08/15 07:53:34;;;;;;;8.55;3.58;;;;;;;;;;5096379;28;20332;-85
2021/08/15 07:56:01;;;;;;;8.82;3.63;;;;;;;;;;5097135;28;20128;-85
2021/08/15 07:58:27;;;;;;;9.80;3.97;;;;;;;;;;5096162;28;20093;-85
2021/08/15 08:00:58;;;;;;;7.32;3.40;;;;;;;;;;5097586;28;20087;-84
2021/08/15 08:03:25;;;;;;;8.90;3.20;;;;;;;;;;5095591;28;20044;-83
2021/08/15 08:05:52;;;;;;;10.32;3.45;;;;;;;;;;5096062;28;20387;-84
2021/08/15 08:08:19;;;;;;;8.35;3.00;;;;;;;;;;5098225;28;20079;-84
2021/08/15 08:10:49;;;;;;;9.93;3.22;;;;;;;;;;5097103;28;20117;-84
2021/08/15 08:13:16;;;;;;;7.97;3.90;;;;;;;;;;5096228;28;20055;-85
2021/08/15 08:15:42;;;;;;;11.18;3.10;;;;;;;;;;5096901;28;20054;-85
2021/08/15 08:18:10;;;;;;;11.50;3.28;;;;;;;;;;5096934;28;20098;-84
2021/08/15 08:20:40;;;;;;;7.90;3.38;;;;;;;;;;5106988;28;20036;-85
2021/08/15 08:23:08;;;;;;;5.68;3.05;;;;;;;;;;5109299;28;20056;-85
2021/08/15 08:25:35;;;;;;;5.88;3.22;;;;;;;;;;5101176;28;20071;-85
2021/08/15 08:28:08;;;;;;;5.57;3.00;;;;;;;;;;5096701;28;20055;-85
2021/08/15 08:30:35;;;;;;;8.52;2.85;;;;;;;;;;5097269;28;20102;-83
2021/08/15 08:33:05;;;;;;;6.93;3.33;;;;;;;;;;5096466;28;20058;-84
2021/08/15 08:35:32;;;;;;;7.00;3.20;;;;;;;;;;5096942;28;20086;-84
2021/08/15 08:37:59;;;;;;;8.13;2.85;;;;;;;;;;5097206;28;20107;-85
2021/08/15 08:40:26;;;;;;;4.90;2.90;;;;;;;;;;5105297;28;20075;-84
2021/08/15 08:42:53;;;;;;;7.00;2.63;;;;;;;;;;5108278;28;20044;-87
2021/08/15 08:45:31;;;;;;;5.57;2.33;;;;;;;;;;5105971;28;20055;-84
2021/08/15 08:48:01;;;;;;;8.38;3.35;;;;;;;;;;5101931;28;20066;-85
2021/08/15 08:50:27;;;;;;;8.38;3.30;;;;;;;;;;5095557;28;20342;-84
2021/08/15 08:52:57;;;;;;;7.20;2.78;;;;;;;;;;5094346;28;20434;-84
2021/08/15 08:55:24;;;;;;;8.75;3.00;;;;;;;;;;5091485;28;20093;-85
2021/08/15 08:57:51;;;;;;;6.15;3.20;;;;;;;;;;5094015;28;20297;-84
2021/08/15 09:00:18;;;;;;;6.55;2.75;;;;;;;;;;5093001;28;20351;-84
2021/08/15 09:02:45;;;;;;;9.13;3.42;;;;;;;;;;5090675;28;20384;-84
2021/08/15 09:05:12;;;;;;;4.93;2.80;;;;;;;;;;5091460;28;20112;-83
2021/08/15 09:07:40;;;;;;;8.20;3.28;;;;;;;;;;5090101;28;20397;-84
2021/08/15 09:10:12;;;;;;;7.43;3.22;;;;;;;;;;5091234;28;20127;-85
2021/08/15 09:12:43;;;;;;;5.75;3.22;;;;;;;;;;5091155;28;20044;-85
2021/08/15 09:15:10;;;;;;;5.80;3.03;;;;;;;;;;5091944;28;20048;-85
2021/08/15 09:17:37;;;;;;;5.53;3.17;;;;;;;;;;5098648;28;20056;-85
2021/08/15 09:20:05;;;;;;;7.60;3.47;;;;;;;;;;5100601;28;20074;-86
2021/08/15 09:22:35;;;;;;;8.52;4.05;;;;;;;;;;5110054;28;20062;-85
2021/08/15 09:25:10;;;;;;;10.07;3.75;;;;;;;;;;5107844;28;20073;-85
2021/08/15 09:27:42;;;;;;;9.98;3.78;;;;;;;;;;5109551;28;20044;-85
2021/08/15 09:30:10;;;;;;;8.23;3.47;;;;;;;;;;5110714;28;20091;-85
2021/08/15 09:32:52;;;;;;;8.52;3.45;;;;;;;;;;5107207;28;20148;-85
2021/08/15 09:35:22;;;;;;;7.90;3.55;;;;;;;;;;5107413;28;20101;-85
2021/08/15 09:37:55;;;;;;;11.73;4.25;;;;;;;;;;5102782;28;20080;-84
2021/08/15 09:40:22;;;;;;;8.38;4.15;;;;;;;;;;5108202;28;20047;-85
2021/08/15 09:42:49;;;;;;;10.13;4.20;;;;;;;;;;5100721;28;20249;-86
2021/08/15 09:45:17;;;;;;;8.32;3.90;;;;;;;;;;5093736;28;20335;-86
2021/08/15 09:47:47;;;;;;;11.82;3.92;;;;;;;;;;5094864;28;20040;-84
2021/08/15 09:50:23;;;;;;;7.28;3.33;;;;;;;;;;5094706;28;20121;-86
2021/08/15 09:52:50;;;;;;;11.95;3.90;;;;;;;;;;5107172;28;20328;-88
2021/08/15 09:55:23;;;;;;;8.57;3.72;;;;;;;;;;5108142;28;20055;-86
2021/08/15 09:57:50;;;;;;;9.63;3.42;;;;;;;;;;5105811;28;20044;-87
2021/08/15 10:00:20;;;;;;;11.13;4.47;;;;;;;;;;5097537;28;20397;-87
2021/08/15 10:02:47;;;;;;;8.10;4.60;;;;;;;;;;5095618;28;20395;-87
2021/08/15 10:05:14;;;;;;;8.50;4.40;;;;;;;;;;5093602;28;20313;-86
2021/08/15 10:07:43;;;;;;;10.70;4.38;;;;;;;;;;5093712;28;20375;-86
2021/08/15 10:10:13;;;;;;;8.63;4.05;;;;;;;;;;5098164;28;20054;-84
2021/08/15 10:12:40;;;;;;;10.80;3.83;;;;;;;;;;5105413;28;20330;-84
2021/08/15 10:15:11;;;;;;;11.38;4.05;;;;;;;;;;5100810;28;20048;-85
2021/08/15 10:17:39;;;;;;;8.18;4.07;;;;;;;;;;5096463;28;20158;-84
2021/08/15 10:20:10;;;;;;;8.77;3.30;;;;;;;;;;5099063;28;20044;-84
2021/08/15 10:22:37;;;;;;;8.95;3.80;;;;;;;;;;5106950;28;20489;-85
2021/08/15 10:25:07;;;;;;;8.90;2.90;;;;;;;;;;5097690;28;20074;-84
2021/08/15 10:27:40;;;;;;;9.70;4.15;;;;;;;;;;5094733;28;20147;-84
2021/08/15 10:30:20;;;;;;;7.70;3.25;;;;;;;;;;5098458;28;20135;-84
2021/08/15 10:32:57;;;;;;;8.73;3.38;;;;;;;;;;5094988;28;20052;-84
2021/08/15 10:35:31;;;;;;;6.57;3.13;;;;;;;;;;5094702;28;20142;-85
2021/08/15 10:38:01;;;;;;;10.73;3.30;;;;;;;;;;5096127;28;20332;-87
2021/08/15 10:40:41;;;;;;;7.38;3.45;;;;;;;;;;5093638;28;20113;-86
2021/08/15 10:43:08;;;;;;;8.00;3.40;;;;;;;;;;5098936;28;20060;-86
2021/08/15 10:45:36;;;;;;;8.13;2.97;;;;;;;;;;5101484;28;20052;-85
2021/08/15 10:48:09;;;;;;;7.20;3.20;;;;;;;;;;5099230;28;20194;-86
2021/08/15 10:50:42;;;;;;;9.13;3.45;;;;;;;;;;5096896;28;20074;-85
2021/08/15 10:53:30;;;;;;;6.60;3.35;;;;;;;;;;5095325;28;20215;-87
2021/08/15 10:55:58;;;;;;;7.55;2.70;;;;;;;;;;5094637;28;20294;-86
2021/08/15 10:58:41;;;;;;;5.68;2.72;;;;;;;;;;5093291;28;20044;-86
2021/08/15 11:01:31;;;;;;;8.13;3.70;;;;;;;;;;5091635;28;20040;-86
2021/08/15 11:03:59;;;;;;;7.30;3.15;;;;;;;;;;5084063;28;20563;-87
2021/08/15 11:06:32;;;;;;;7.38;2.92;;;;;;;;;;5091753;28;20196;-87
2021/08/15 11:09:00;;;;;;;7.55;2.78;;;;;;;;;;5091228;28;20067;-87
2021/08/15 11:11:30;;;;;;;7.80;3.90;;;;;;;;;;5095734;28;20400;-86
2021/08/15 11:14:16;;;;;;;7.85;3.45;;;;;;;;;;5093348;28;20458;-86
2021/08/15 11:16:53;;;;;;;7.20;3.28;;;;;;;;;;5096910;28;20101;-87
2021/08/15 11:19:20;;;;;;;8.38;3.35;;;;;;;;;;5093409;28;20223;-86
2021/08/15 11:22:01;;;;;;;10.20;3.05;;;;;;;;;;5093912;28;20067;-87
2021/08/15 11:24:30;;;;;;;9.02;3.22;;;;;;;;;;5095342;28;20082;-87
2021/08/15 11:26:57;;;;;;;8.18;2.97;;;;;;;;;;5097453;28;20366;-87
2021/08/15 11:29:25;;;;;;;9.07;3.15;;;;;;;;;;5100436;28;20053;-87
2021/08/15 11:31:52;;;;;;;11.18;3.10;;;;;;;;;;5095765;28;20063;-85
2021/08/15 11:34:20;;;;;;;8.25;3.10;;;;;;;;;;5096396;28;20336;-86
2021/08/15 11:37:11;;;;;;;8.13;3.70;;;;;;;;;;5100430;28;20048;-86
2021/08/15 11:39:39;;;;;;;10.00;3.92;;;;;;;;;;5093250;28;20100;-87
2021/08/15 11:42:06;;;;;;;12.93;4.18;;;;;;;;;;5093686;28;20059;-86
2021/08/15 11:44:52;;;;;;;8.38;3.80;;;;;;;;;;5093114;28;20063;-87
2021/08/15 11:47:25;;;;;;;12.07;4.93;;;;;;;;;;5094768;28;20044;-87
2021/08/15 11:49:52;;;;;;;13.52;5.47;;;;;;;;;;5110262;28;20040;-86
2021/08/15 11:52:23;;;;;;;11.95;4.78;;;;;;;;;;5108047;28;20099;-87
2021/08/15 11:54:54;;;;;;;10.60;4.50;;;;;;;;;;5093273;28;20231;-87
2021/08/15 11:57:21;;;;;;;11.93;4.43;;;;;;;;;;5090770;28;20105;-87
2021/08/15 12:00:01;;;;;;;9.52;4.60;;;;;;;;;;5090712;28;20066;-87
2021/08/15 12:02:31;;;;;;;10.38;4.60;;;;;;;;;;5089590;28;20281;-87
2021/08/15 12:04:58;;;;;;;10.35;4.85;;;;;;;;;;5092646;28;20102;-88
2021/08/15 12:07:25;;;;;;;10.23;4.22;;;;;;;;;;5101215;28;20078;-88
2021/08/15 12:10:11;;;;;;;14.07;5.53;;;;;;;;;;5106911;28;20036;-87
2021/08/15 12:12:37;;;;;;;12.68;4.70;;;;;;;;;;5093052;28;20044;-87
2021/08/15 12:15:06;;;;;;;11.23;4.70;;;;;;;;;;5089093;28;20283;-88
2021/08/15 12:17:51;;;;;;;9.30;4.38;;;;;;;;;;5090566;28;20543;-87
2021/08/15 12:20:19;;;;;;;11.73;4.85;;;;;;;;;;5091816;28;20071;-88
2021/08/15 12:22:46;;;;;;;11.15;4.97;;;;;;;;;;5092008;28;20052;-88
2021/08/15 12:25:23;;;;;;;11.60;5.07;;;;;;;;;;5089509;28;20052;-87
2021/08/15 12:27:50;;;;;;;11.20;4.40;;;;;;;;;;5089861;28;20071;-87
2021/08/15 12:30:30;;;;;;;12.07;4.28;;;;;;;;;;5092402;28;20416;-86
2021/08/15 12:32:56;;;;;;;9.57;3.70;;;;;;;;;;5093013;28;20384;-86
2021/08/15 12:35:26;;;;;;;11.45;3.90;;;;;;;;;;5091261;28;20404;-87
2021/08/15 12:37:53;;;;;;;8.02;3.92;;;;;;;;;;5095148;28;20071;-87
2021/08/15 12:40:29;;;;;;;8.48;3.65;;;;;;;;;;5110053;28;20262;-86
2021/08/15 12:42:57;;;;;;;9.80;3.72;;;;;;;;;;5108231;28;20058;-86
2021/08/15 12:45:35;;;;;;;8.13;3.53;;;;;;;;;;5093005;28;20048;-86
2021/08/15 12:48:04;;;;;;;13.60;4.40;;;;;;;;;;5093008;28;20048;-86
2021/08/15 12:50:32;;;;;;;6.70;3.75;;;;;;;;;;5102226;28;20072;-86
2021/08/15 12:53:00;;;;;;;10.10;4.10;;;;;;;;;;5096058;28;20183;-86
2021/08/15 12:55:27;;;;;;;7.05;3.08;;;;;;;;;;5094044;28;20067;-87
2021/08/15 12:57:55;;;;;;;6.68;3.17;;;;;;;;;;5088618;28;20098;-87
2021/08/15 13:00:23;;;;;;;8.57;4.00;;;;;;;;;;5100187;28;20110;-87
2021/08/15 13:02:54;;;;;;;8.82;3.45;;;;;;;;;;5108600;28;20107;-87
2021/08/15 13:05:22;;;;;;;9.18;3.63;;;;;;;;;;5094097;28;20063;-87
2021/08/15 13:07:49;;;;;;;7.40;3.92;;;;;;;;;;5089808;28;20173;-87
2021/08/15 13:10:16;;;;;;;9.55;3.97;;;;;;;;;;5096140;28;20062;-87
2021/08/15 13:12:43;;;;;;;9.45;3.95;;;;;;;;;;5105197;28;20052;-87
2021/08/15 13:15:10;;;;;;;10.27;4.18;;;;;;;;;;5092813;28;20059;-87
2021/08/15 13:17:40;;;;;;;9.75;3.35;;;;;;;;;;5091785;28;20048;-87
2021/08/15 13:20:08;;;;;;;6.35;3.47;;;;;;;;;;5091052;28;20134;-87
2021/08/15 13:22:35;;;;;;;8.35;3.50;;;;;;;;;;5091086;28;20145;-87
2021/08/15 13:25:02;;;;;;;8.15;3.63;;;;;;;;;;5099329;28;20115;-87
2021/08/15 13:27:29;;;;;;;7.25;3.90;;;;;;;;;;5108371;28;20214;-87
2021/08/15 13:29:56;;;;;;;7.03;3.70;;;;;;;;;;5100399;28;20052;-87
2021/08/15 13:32:24;;;;;;;11.38;3.85;;;;;;;;;;5091381;28;20052;-86
2021/08/15 13:34:55;;;;;;;7.63;3.63;;;;;;;;;;5089392;28;20114;-86
2021/08/15 13:37:23;;;;;;;11.48;4.03;;;;;;;;;;5089885;28;20111;-86
2021/08/15 13:39:58;;;;;;;10.60;4.13;;;;;;;;;;5089812;28;20348;-86
2021/08/15 13:42:24;;;;;;;8.52;3.58;;;;;;;;;;5092910;28;20058;-86
2021/08/15 13:44:52;;;;;;;10.43;3.25;;;;;;;;;;5092196;28;20048;-86
2021/08/15 13:47:22;;;;;;;7.10;4.30;;;;;;;;;;5091971;28;20259;-88
2021/08/15 13:49:49;;;;;;;8.30;3.67;;;;;;;;;;5091982;28;20040;-87
2021/08/15 13:52:16;;;;;;;7.72;3.45;;;;;;;;;;5089097;28;20051;-87
2021/08/15 13:54:42;;;;;;;10.48;3.78;;;;;;;;;;5091201;28;20419;-86
2021/08/15 13:57:09;;;;;;;6.75;3.78;;;;;;;;;;5092491;28;20225;-86
2021/08/15 13:59:36;;;;;;;9.88;3.47;;;;;;;;;;5092037;28;20302;-86
2021/08/15 14:02:06;;;;;;;8.02;3.65;;;;;;;;;;5092453;28;20066;-86
2021/08/15 14:04:34;;;;;;;6.80;3.33;;;;;;;;;;5091277;28;20048;-85
2021/08/15 14:07:01;;;;;;;8.45;3.38;;;;;;;;;;5091970;28;20312;-86
2021/08/15 14:09:32;;;;;;;9.27;3.42;;;;;;;;;;5090622;28;20087;-86
2021/08/15 14:11:58;;;;;;;9.05;3.17;;;;;;;;;;5090175;28;20400;-87
2021/08/15 14:14:29;;;;;;;6.90;3.22;;;;;;;;;;5090785;28;20424;-86
2021/08/15 14:16:57;;;;;;;11.85;3.70;;;;;;;;;;5090114;28;20051;-86
2021/08/15 14:19:29;;;;;;;8.77;3.33;;;;;;;;;;5091971;28;20040;-87
2021/08/15 14:21:56;;;;;;;4.35;3.10;;;;;;;;;;5091757;28;20048;-87
2021/08/15 14:24:22;;;;;;;6.43;3.10;;;;;;;;;;5090180;28;20048;-87
2021/08/15 14:26:56;;;;;;;5.72;3.60;;;;;;;;;;5093646;28;20080;-87
2021/08/15 14:29:27;;;;;;;12.38;4.07;;;;;;;;;;5091128;28;20051;-87
2021/08/15 14:31:53;;;;;;;9.48;4.70;;;;;;;;;;5101242;28;20048;-87
2021/08/15 14:34:20;;;;;;;9.25;3.75;;;;;;;;;;5103325;28;20143;-87
2021/08/15 14:36:49;;;;;;;8.60;4.00;;;;;;;;;;5102980;28;20308;-87
2021/08/15 14:39:16;;;;;;;8.38;3.75;;;;;;;;;;5100139;28;20074;-87
2021/08/15 14:41:46;;;;;;;8.75;4.40;;;;;;;;;;5090585;28;20047;-86
2021/08/15 14:44:13;;;;;;;9.07;4.35;;;;;;;;;;5093487;28;20059;-87